Time;durP1;ratioP1;P1;durP2;ratioP2;P2;SDS_P1;SDS_P2;PMS_P1;PMS_P2;Temp;Humidity;BMP_temperature;BMP_pressure;BME280_temperature;BME280_humidity;BME280_pressure;Samples;Min_cycle;Max_cycle;Signal;HPM_P1;HPM_P2
2023/01/10 00:02:01;;;;;;;2.70;1.37;;;9.40;95.00;;;;;;948484;148;27343;-78
2023/01/10 00:04:29;;;;;;;1.93;1.00;;;9.50;95.00;;;;;;948264;148;27487;-78
2023/01/10 00:06:54;;;;;;;1.90;1.40;;;9.50;95.00;;;;;;948139;146;27471;-77
2023/01/10 00:09:21;;;;;;;1.37;0.97;;;9.50;94.90;;;;;;948524;148;27697;-77
2023/01/10 00:14:33;;;;;;;0.80;0.70;;;9.50;94.90;;;;;;949140;148;27298;-78
2023/01/10 00:16:59;;;;;;;1.13;1.03;;;9.50;94.70;;;;;;949036;148;27321;-77
2023/01/10 00:19:25;;;;;;;1.23;1.10;;;9.50;94.60;;;;;;948623;148;28385;-76
2023/01/10 00:21:52;;;;;;;2.87;1.10;;;9.50;94.30;;;;;;949084;148;27318;-77
2023/01/10 00:24:18;;;;;;;1.30;1.00;;;9.50;94.10;;;;;;953920;147;27471;-78
2023/01/10 00:26:49;;;;;;;1.20;1.10;;;9.50;93.80;;;;;;954861;147;27816;-78
2023/01/10 00:29:12;;;;;;;1.10;1.00;;;9.40;93.60;;;;;;953838;147;27451;-76
2023/01/10 00:31:38;;;;;;;2.07;1.00;;;9.30;93.40;;;;;;954763;147;27266;-77
2023/01/10 00:34:06;;;;;;;1.83;1.00;;;9.30;93.40;;;;;;954821;147;27334;-77
2023/01/10 00:36:31;;;;;;;2.07;1.10;;;9.20;93.40;;;;;;954467;147;27330;-77
2023/01/10 00:38:58;;;;;;;3.17;1.20;;;9.10;93.40;;;;;;938104;149;27483;-77
2023/01/10 00:44:09;;;;;;;0.80;0.80;;;9.00;93.80;;;;;;955398;147;27430;-78
2023/01/10 00:46:36;;;;;;;1.47;1.00;;;8.90;94.00;;;;;;954807;147;27299;-78
2023/01/10 00:49:07;;;;;;;1.03;0.70;;;8.90;94.20;;;;;;954828;148;27378;-78
2023/01/10 00:51:29;;;;;;;0.90;0.90;;;8.90;94.50;;;;;;954229;147;27365;-77
2023/01/10 00:53:56;;;;;;;1.13;1.00;;;8.80;94.80;;;;;;954248;147;27371;-77
2023/01/10 00:56:22;;;;;;;2.10;0.90;;;8.80;94.90;;;;;;954758;147;27431;-78
2023/01/10 00:58:49;;;;;;;1.33;1.00;;;8.90;95.20;;;;;;954381;147;27726;-78
2023/01/10 01:01:15;;;;;;;1.00;1.00;;;8.90;95.40;;;;;;955308;147;27393;-78
2023/01/10 01:03:42;;;;;;;1.03;0.87;;;8.90;95.60;;;;;;954908;147;27322;-78
2023/01/10 01:06:09;;;;;;;1.93;0.97;;;9.00;95.70;;;;;;955179;147;27267;-77
2023/01/10 01:08:35;;;;;;;1.23;1.10;;;9.00;95.80;;;;;;938476;149;27414;-78
2023/01/10 01:11:02;;;;;;;1.17;0.73;;;9.00;95.80;;;;;;938451;149;27456;-78
2023/01/10 01:13:28;;;;;;;1.00;1.00;;;9.10;95.80;;;;;;955864;147;27454;-78
2023/01/10 01:15:58;;;;;;;1.23;1.10;;;9.10;95.70;;;;;;954390;147;27326;-78
2023/01/10 01:18:24;;;;;;;1.00;1.00;;;9.10;95.70;;;;;;953566;147;27976;-78
2023/01/10 01:20:55;;;;;;;0.80;0.80;;;9.20;95.60;;;;;;954723;147;27392;-78
2023/01/10 01:23:20;;;;;;;1.23;1.00;;;9.20;95.50;;;;;;954253;147;27517;-78
2023/01/10 01:25:47;;;;;;;0.90;0.90;;;9.20;95.40;;;;;;951065;148;27275;-78
2023/01/10 01:28:13;;;;;;;1.07;1.00;;;9.20;95.30;;;;;;953944;147;27350;-78
2023/01/10 01:30:40;;;;;;;0.97;0.90;;;9.30;95.20;;;;;;950253;146;27410;-77
2023/01/10 01:33:07;;;;;;;1.43;1.00;;;9.30;95.10;;;;;;934203;149;27376;-77
2023/01/10 01:35:33;;;;;;;0.93;0.93;;;9.30;95.20;;;;;;933703;150;27374;-78
2023/01/10 01:38:00;;;;;;;1.50;1.17;;;9.30;95.20;;;;;;950712;146;27306;-77
2023/01/10 01:40:26;;;;;;;1.30;1.17;;;9.30;95.20;;;;;;950737;146;27306;-77
2023/01/10 01:42:54;;;;;;;1.80;1.00;;;9.30;95.20;;;;;;950627;146;27334;-77
2023/01/10 01:45:23;;;;;;;1.63;1.00;;;9.30;95.20;;;;;;950228;146;27342;-77
2023/01/10 01:47:55;;;;;;;1.17;1.07;;;9.30;95.20;;;;;;933750;149;27307;-78
2023/01/10 01:50:21;;;;;;;0.90;0.90;;;9.30;95.10;;;;;;949592;146;27293;-78
2023/01/10 01:52:48;;;;;;;1.57;1.00;;;9.30;95.00;;;;;;934145;149;27360;-78
2023/01/10 01:55:15;;;;;;;1.10;1.00;;;9.30;95.00;;;;;;950224;146;27359;-77
2023/01/10 01:57:41;;;;;;;1.27;0.80;;;9.30;95.00;;;;;;950574;146;27274;-77
2023/01/10 02:00:09;;;;;;;1.10;1.00;;;9.30;95.20;;;;;;933720;149;27333;-77
2023/01/10 02:02:34;;;;;;;1.30;1.20;;;9.40;95.20;;;;;;950714;146;27786;-78
2023/01/10 02:05:07;;;;;;;1.20;1.10;;;9.40;95.20;;;;;;934387;151;27453;-77
2023/01/10 02:07:33;;;;;;;1.27;1.03;;;9.40;95.20;;;;;;949595;146;27343;-78
2023/01/10 02:10:09;;;;;;;0.90;0.90;;;9.40;95.10;;;;;;934718;149;27340;-77
2023/01/10 02:12:35;;;;;;;0.97;0.80;;;9.40;95.10;;;;;;933786;149;27351;-78
2023/01/10 02:15:02;;;;;;;1.77;1.10;;;9.40;95.00;;;;;;935208;149;27351;-78
2023/01/10 02:17:28;;;;;;;1.77;1.07;;;9.40;94.90;;;;;;950746;146;28333;-78
2023/01/10 02:19:55;;;;;;;1.03;0.70;;;9.40;94.90;;;;;;933965;149;27444;-77
2023/01/10 02:22:59;;;;;;;0.70;0.70;;;9.40;94.90;;;;;;943437;149;27428;-77
2023/01/10 02:25:40;;;;;;;1.17;0.80;;;9.40;94.90;;;;;;944940;148;27421;-77
2023/01/10 02:28:22;;;;;;;1.40;1.00;;;9.40;94.70;;;;;;962975;146;27306;-78
2023/01/10 02:31:10;;;;;;;0.90;0.87;;;9.40;94.60;;;;;;964761;146;27863;-77
2023/01/10 02:33:39;;;;;;;1.40;0.97;;;9.40;94.30;;;;;;964982;145;27353;-77
2023/01/10 02:36:06;;;;;;;1.77;0.73;;;9.40;94.60;;;;;;949527;148;27274;-77
2023/01/10 02:38:42;;;;;;;1.80;1.00;;;9.40;94.50;;;;;;946621;148;27350;-76
2023/01/10 02:41:27;;;;;;;1.90;1.10;;;9.40;94.50;;;;;;965143;145;27325;-78
2023/01/10 02:43:53;;;;;;;2.67;1.07;;;9.30;94.50;;;;;;947646;148;27361;-78
2023/01/10 02:46:23;;;;;;;0.90;0.90;;;9.30;94.50;;;;;;967760;145;27413;-78
2023/01/10 02:48:47;;;;;;;2.27;1.13;;;9.30;94.50;;;;;;963585;146;28284;-78
2023/01/10 02:51:22;;;;;;;1.63;1.20;;;9.30;94.60;;;;;;967186;145;27308;-78
2023/01/10 02:53:48;;;;;;;1.00;1.00;;;9.30;94.60;;;;;;943556;149;27314;-78
2023/01/10 02:56:18;;;;;;;0.90;0.90;;;9.30;94.80;;;;;;957111;146;27688;-78
2023/01/10 02:59:15;;;;;;;1.47;1.03;;;9.30;94.80;;;;;;941936;149;27373;-78
2023/01/10 03:01:57;;;;;;;2.50;0.83;;;9.30;95.00;;;;;;964893;145;27356;-78
2023/01/10 03:04:44;;;;;;;0.90;0.83;;;9.30;94.90;;;;;;963552;146;27259;-78
2023/01/10 03:07:11;;;;;;;1.60;0.80;;;9.30;95.00;;;;;;960926;148;27392;-78
2023/01/10 03:09:46;;;;;;;1.20;1.10;;;9.30;95.10;;;;;;962788;146;27339;-78
2023/01/10 03:12:12;;;;;;;1.37;0.80;;;9.30;95.20;;;;;;946893;148;27324;-78
2023/01/10 03:14:39;;;;;;;0.93;0.83;;;9.30;95.20;;;;;;964544;145;27313;-78
2023/01/10 03:17:06;;;;;;;1.33;1.00;;;9.30;95.20;;;;;;947524;148;27336;-78
2023/01/10 03:19:32;;;;;;;0.47;0.47;;;9.30;95.20;;;;;;956898;147;27350;-81
2023/01/10 03:21:59;;;;;;;1.17;0.87;;;9.30;95.10;;;;;;964715;145;27463;-81
2023/01/10 03:24:28;;;;;;;1.77;0.90;;;9.30;95.10;;;;;;943729;149;27314;-80
2023/01/10 03:26:55;;;;;;;2.07;0.70;;;9.30;94.90;;;;;;962551;146;27326;-80
2023/01/10 03:29:21;;;;;;;1.00;0.80;;;9.30;94.70;;;;;;942535;149;27457;-81
2023/01/10 03:31:48;;;;;;;0.93;0.93;;;9.30;94.50;;;;;;963849;145;27250;-81
2023/01/10 03:34:14;;;;;;;0.60;0.60;;;9.30;94.20;;;;;;963848;145;27433;-80
2023/01/10 03:36:56;;;;;;;1.20;0.87;;;9.20;94.00;;;;;;955893;148;27324;-81
2023/01/10 03:39:28;;;;;;;0.97;0.70;;;9.20;93.90;;;;;;964301;145;27407;-79
2023/01/10 03:42:07;;;;;;;1.73;0.90;;;9.10;93.80;;;;;;962769;145;27783;-80
2023/01/10 03:44:55;;;;;;;1.73;0.73;;;9.00;93.90;;;;;;968114;145;27313;-81
2023/01/10 03:47:30;;;;;;;0.77;0.77;;;8.90;94.00;;;;;;940522;148;27340;-81
2023/01/10 03:49:57;;;;;;;0.70;0.70;;;8.90;94.20;;;;;;943159;148;27360;-79
2023/01/10 03:52:23;;;;;;;0.80;0.80;;;8.80;94.40;;;;;;963189;146;27351;-80
2023/01/10 03:54:50;;;;;;;0.90;0.90;;;8.80;94.60;;;;;;965723;145;27274;-81
2023/01/10 03:57:19;;;;;;;0.70;0.70;;;8.80;94.70;;;;;;947238;148;27276;-81
2023/01/10 03:59:46;;;;;;;1.80;0.80;;;8.80;94.90;;;;;;947170;149;27357;-80
2023/01/10 04:02:12;;;;;;;1.13;0.70;;;8.80;94.90;;;;;;965598;145;27855;-81
2023/01/10 04:04:39;;;;;;;1.43;0.90;;;8.80;94.90;;;;;;964372;145;27329;-82
2023/01/10 04:07:05;;;;;;;1.13;0.63;;;8.80;95.00;;;;;;943001;149;27424;-81
2023/01/10 04:09:32;;;;;;;1.43;0.83;;;8.80;95.00;;;;;;965631;145;27292;-81
2023/01/10 04:11:59;;;;;;;1.87;0.93;;;8.80;95.00;;;;;;963483;146;27347;-80
2023/01/10 04:14:26;;;;;;;2.57;1.17;;;8.80;94.90;;;;;;946911;149;27301;-81
2023/01/10 04:16:52;;;;;;;2.13;0.97;;;8.90;94.90;;;;;;963987;145;27379;-82
2023/01/10 04:19:18;;;;;;;2.03;1.00;;;8.90;94.80;;;;;;954429;147;27364;-81
2023/01/10 04:21:45;;;;;;;2.37;0.90;;;8.90;94.70;;;;;;946880;148;27402;-81
2023/01/10 04:24:11;;;;;;;3.07;1.07;;;8.90;94.60;;;;;;964359;146;27331;-81
2023/01/10 04:26:38;;;;;;;1.40;1.10;;;8.90;94.50;;;;;;963669;146;27311;-81
2023/01/10 04:29:05;;;;;;;3.60;1.20;;;8.90;94.40;;;;;;964349;146;27244;-81
2023/01/10 04:31:31;;;;;;;3.30;1.20;;;8.90;94.40;;;;;;964793;146;27776;-79
2023/01/10 04:33:58;;;;;;;2.10;1.03;;;8.90;94.30;;;;;;964303;145;27349;-81
2023/01/10 04:36:24;;;;;;;1.23;0.80;;;8.90;94.20;;;;;;964537;146;27254;-81
2023/01/10 04:38:51;;;;;;;1.37;1.03;;;8.90;94.00;;;;;;964662;148;27284;-81
2023/01/10 04:41:18;;;;;;;1.67;1.20;;;8.90;93.90;;;;;;964007;148;27300;-80
2023/01/10 04:43:44;;;;;;;3.27;0.97;;;8.90;93.80;;;;;;964779;148;27406;-80
2023/01/10 04:46:11;;;;;;;0.77;0.77;;;8.90;93.70;;;;;;965182;145;27748;-81
2023/01/10 04:48:37;;;;;;;1.80;1.10;;;8.80;93.50;;;;;;965303;148;27686;-81
2023/01/10 04:51:04;;;;;;;1.67;1.00;;;8.80;93.30;;;;;;964532;148;27920;-81
2023/01/10 04:53:30;;;;;;;1.10;0.97;;;8.70;93.20;;;;;;964482;148;27421;-80
2023/01/10 04:56:03;;;;;;;1.50;1.30;;;8.60;93.20;;;;;;964627;148;27447;-81
2023/01/10 04:58:30;;;;;;;2.73;1.30;;;8.60;93.30;;;;;;963601;147;27254;-82
2023/01/10 05:00:56;;;;;;;4.40;1.87;;;8.50;93.70;;;;;;963935;147;27431;-81
2023/01/10 05:03:23;;;;;;;3.37;1.80;;;8.50;93.50;;;;;;964904;148;27437;-81
2023/01/10 05:05:49;;;;;;;4.00;1.83;;;8.50;93.60;;;;;;964227;147;27434;-81
2023/01/10 05:08:16;;;;;;;3.83;1.60;;;8.40;93.60;;;;;;964933;148;27504;-80
2023/01/10 05:10:42;;;;;;;3.10;1.73;;;8.30;93.50;;;;;;964013;147;27382;-81
2023/01/10 05:13:09;;;;;;;1.87;1.30;;;8.30;93.80;;;;;;964585;148;27415;-81
2023/01/10 05:15:36;;;;;;;1.20;1.20;;;8.30;93.70;;;;;;964796;148;27443;-81
2023/01/10 05:18:02;;;;;;;3.20;1.53;;;8.20;93.80;;;;;;964304;148;27441;-81
2023/01/10 05:20:29;;;;;;;3.10;1.60;;;8.20;94.00;;;;;;964477;148;27332;-81
2023/01/10 05:22:55;;;;;;;2.73;1.50;;;8.20;94.10;;;;;;964604;148;27384;-81
2023/01/10 05:25:22;;;;;;;2.67;1.20;;;8.10;94.30;;;;;;964715;148;27246;-81
2023/01/10 05:27:49;;;;;;;2.87;1.27;;;8.10;94.50;;;;;;959539;148;27381;-81
2023/01/10 05:30:15;;;;;;;2.27;1.40;;;8.10;94.90;;;;;;959883;147;27365;-82
2023/01/10 05:32:42;;;;;;;3.27;1.33;;;8.10;95.00;;;;;;964445;147;27386;-81
2023/01/10 05:35:08;;;;;;;3.33;1.47;;;8.10;95.10;;;;;;933367;151;27358;-81
2023/01/10 05:37:35;;;;;;;1.70;1.50;;;8.20;95.30;;;;;;940929;150;27356;-81
2023/01/10 05:40:01;;;;;;;3.70;1.47;;;8.20;95.40;;;;;;947905;150;27375;-81
2023/01/10 05:42:28;;;;;;;3.07;1.50;;;8.30;95.50;;;;;;955375;147;27385;-82
2023/01/10 05:44:55;;;;;;;3.17;1.40;;;8.30;95.50;;;;;;954913;149;27290;-80
2023/01/10 05:47:21;;;;;;;3.53;1.70;;;8.30;95.50;;;;;;939912;152;27323;-81
2023/01/10 05:49:48;;;;;;;4.80;1.73;;;8.40;95.40;;;;;;940360;150;27400;-80
2023/01/10 05:52:14;;;;;;;3.97;1.93;;;8.40;95.40;;;;;;932891;152;27368;-81
2023/01/10 05:54:41;;;;;;;3.07;2.23;;;8.40;95.30;;;;;;933260;151;27290;-81
2023/01/10 05:57:08;;;;;;;1.87;1.70;;;8.50;95.30;;;;;;940681;149;27934;-80
2023/01/10 05:59:34;;;;;;;3.80;2.00;;;8.50;95.30;;;;;;947838;151;27292;-80
2023/01/10 06:02:01;;;;;;;4.33;2.20;;;8.50;95.20;;;;;;934088;150;27433;-82
2023/01/10 06:04:27;;;;;;;4.33;1.80;;;8.50;95.20;;;;;;940971;150;27719;-81
2023/01/10 06:06:54;;;;;;;2.37;1.80;;;8.60;95.20;;;;;;940382;152;27385;-80
2023/01/10 06:09:20;;;;;;;3.83;2.07;;;8.60;95.20;;;;;;947386;148;27441;-80
2023/01/10 06:11:47;;;;;;;2.63;2.10;;;8.60;95.20;;;;;;958583;147;27349;-82
2023/01/10 06:14:17;;;;;;;4.20;2.10;;;8.60;95.10;;;;;;933517;152;27393;-81
2023/01/10 06:16:42;;;;;;;4.00;2.10;;;8.70;95.20;;;;;;956903;148;27440;-81
2023/01/10 06:19:08;;;;;;;4.33;2.27;;;8.70;95.10;;;;;;939306;152;27318;-81
2023/01/10 06:21:33;;;;;;;5.83;2.00;;;8.70;95.10;;;;;;958363;147;27392;-80
2023/01/10 06:24:00;;;;;;;7.97;2.27;;;8.70;95.10;;;;;;933526;152;27392;-81
2023/01/10 06:26:27;;;;;;;3.10;1.90;;;8.70;95.00;;;;;;941097;149;27340;-81
2023/01/10 06:28:53;;;;;;;3.73;1.80;;;8.80;95.10;;;;;;964813;145;27332;-81
2023/01/10 06:31:20;;;;;;;4.37;1.83;;;8.80;94.90;;;;;;964281;145;27339;-80
2023/01/10 06:33:46;;;;;;;3.07;1.50;;;8.80;94.80;;;;;;967506;145;27419;-81
2023/01/10 06:36:13;;;;;;;2.37;1.60;;;8.80;94.80;;;;;;946292;148;27493;-80
2023/01/10 06:38:39;;;;;;;4.57;1.90;;;8.80;94.80;;;;;;946910;148;27407;-80
2023/01/10 06:41:12;;;;;;;3.97;1.90;;;8.80;94.80;;;;;;946923;148;27315;-79
2023/01/10 06:43:46;;;;;;;2.83;2.33;;;8.80;94.80;;;;;;947519;148;27487;-80
2023/01/10 06:46:15;;;;;;;4.33;1.67;;;8.80;94.70;;;;;;934087;151;27429;-81
2023/01/10 06:48:42;;;;;;;8.93;2.60;;;8.90;94.60;;;;;;964298;145;27353;-81
2023/01/10 06:51:06;;;;;;;5.43;2.30;;;8.90;94.50;;;;;;943894;149;28003;-79
2023/01/10 06:53:33;;;;;;;4.37;2.03;;;8.80;94.50;;;;;;964671;146;27446;-81
2023/01/10 06:55:59;;;;;;;5.73;2.10;;;8.90;94.40;;;;;;946776;149;27276;-80
2023/01/10 06:58:26;;;;;;;3.23;1.90;;;8.90;94.30;;;;;;946011;148;27265;-81
2023/01/10 07:00:53;;;;;;;6.87;2.13;;;8.90;94.30;;;;;;963838;145;27405;-80
2023/01/10 07:03:19;;;;;;;6.00;2.67;;;8.80;94.20;;;;;;964412;145;27430;-79
2023/01/10 07:05:46;;;;;;;5.53;2.93;;;8.90;94.20;;;;;;964089;146;27342;-80
2023/01/10 07:08:12;;;;;;;3.50;2.33;;;8.80;94.10;;;;;;964826;145;27324;-80
2023/01/10 07:10:42;;;;;;;3.90;2.10;;;8.80;94.00;;;;;;965036;145;27304;-80
2023/01/10 07:13:08;;;;;;;5.40;2.10;;;8.80;94.10;;;;;;947720;148;27296;-79
2023/01/10 07:15:35;;;;;;;3.30;2.20;;;8.80;94.10;;;;;;948674;148;27438;-80
2023/01/10 07:18:02;;;;;;;2.27;1.70;;;8.80;94.10;;;;;;964895;145;27382;-80
2023/01/10 07:20:28;;;;;;;4.27;2.00;;;8.80;94.10;;;;;;947167;148;28170;-80
2023/01/10 07:22:55;;;;;;;2.40;1.87;;;8.80;94.10;;;;;;947541;148;27448;-80
2023/01/10 07:25:21;;;;;;;4.67;1.93;;;8.80;94.10;;;;;;945996;148;27445;-80
2023/01/10 07:27:48;;;;;;;6.87;1.67;;;8.80;94.10;;;;;;943467;148;28746;-80
2023/01/10 07:30:14;;;;;;;4.03;2.07;;;8.80;94.00;;;;;;950541;146;27305;-80
2023/01/10 07:32:41;;;;;;;6.43;2.37;;;8.80;93.80;;;;;;932919;149;28541;-80
2023/01/10 07:35:08;;;;;;;6.67;3.47;;;8.80;93.70;;;;;;950960;147;27421;-80
2023/01/10 07:37:34;;;;;;;7.53;2.90;;;8.70;93.60;;;;;;935196;149;27377;-81
2023/01/10 07:40:01;;;;;;;6.43;2.83;;;8.70;93.40;;;;;;950841;146;27255;-80
2023/01/10 07:42:27;;;;;;;3.63;2.30;;;8.60;93.30;;;;;;934861;149;27456;-80
2023/01/10 07:44:54;;;;;;;6.70;2.30;;;8.60;93.30;;;;;;948432;148;27938;-80
2023/01/10 07:47:20;;;;;;;5.47;3.10;;;8.60;93.30;;;;;;952667;146;27344;-80
2023/01/10 07:49:47;;;;;;;5.07;2.33;;;8.50;93.30;;;;;;935313;149;27352;-81
2023/01/10 07:52:14;;;;;;;4.80;2.87;;;8.50;93.30;;;;;;949183;148;27678;-80
2023/01/10 07:54:40;;;;;;;5.20;3.23;;;8.40;93.70;;;;;;951474;146;27398;-80
2023/01/10 07:57:07;;;;;;;3.83;2.50;;;8.40;93.50;;;;;;934824;153;27358;-81
2023/01/10 07:59:33;;;;;;;5.27;2.77;;;8.30;93.60;;;;;;951052;147;27327;-81
2023/01/10 08:02:00;;;;;;;8.67;2.43;;;8.30;93.70;;;;;;929785;150;27352;-80
2023/01/10 08:04:27;;;;;;;3.40;2.37;;;8.30;93.70;;;;;;933313;149;27314;-81
2023/01/10 08:06:56;;;;;;;5.57;3.37;;;8.20;93.80;;;;;;953465;147;27278;-80
2023/01/10 08:09:23;;;;;;;5.47;2.50;;;8.20;93.80;;;;;;934202;150;27456;-81
2023/01/10 08:11:49;;;;;;;4.90;2.40;;;8.20;93.80;;;;;;934645;150;27283;-81
2023/01/10 08:14:16;;;;;;;5.00;2.43;;;8.20;93.80;;;;;;951369;147;27288;-80
2023/01/10 08:16:42;;;;;;;4.03;2.20;;;8.20;94.20;;;;;;952103;147;27319;-80
2023/01/10 08:19:11;;;;;;;5.07;2.50;;;8.20;95.00;;;;;;928035;150;27451;-80
2023/01/10 08:21:35;;;;;;;4.13;1.93;;;8.30;95.30;;;;;;934387;150;27396;-80
2023/01/10 08:24:02;;;;;;;4.60;2.17;;;8.40;95.30;;;;;;934797;150;27348;-81
2023/01/10 08:26:29;;;;;;;4.47;1.93;;;8.50;95.00;;;;;;952609;147;27355;-81
2023/01/10 08:28:55;;;;;;;3.00;1.90;;;8.60;95.00;;;;;;941477;148;27488;-80
2023/01/10 08:31:22;;;;;;;6.37;1.77;;;8.60;95.10;;;;;;965238;146;27341;-80
2023/01/10 08:33:48;;;;;;;6.27;2.33;;;8.70;95.00;;;;;;947240;149;27316;-80
2023/01/10 08:36:15;;;;;;;8.23;3.23;;;8.80;94.80;;;;;;966098;145;27422;-81
2023/01/10 08:38:42;;;;;;;5.27;2.40;;;8.90;94.80;;;;;;943655;149;27630;-81
2023/01/10 08:41:08;;;;;;;6.23;2.40;;;8.90;94.80;;;;;;964472;146;27334;-81
2023/01/10 08:43:35;;;;;;;5.83;2.23;;;9.00;95.00;;;;;;964852;145;27313;-81
2023/01/10 08:46:01;;;;;;;5.43;2.53;;;9.10;95.40;;;;;;944014;149;27423;-80
2023/01/10 08:48:28;;;;;;;6.33;2.10;;;9.20;95.40;;;;;;964627;146;27299;-80
2023/01/10 08:50:54;;;;;;;6.20;2.10;;;9.30;95.50;;;;;;942061;148;27340;-80
2023/01/10 08:53:21;;;;;;;6.43;2.20;;;9.50;95.40;;;;;;948275;148;27361;-81
2023/01/10 08:55:48;;;;;;;4.33;2.30;;;9.60;95.00;;;;;;968604;145;27299;-81
2023/01/10 08:58:14;;;;;;;5.93;2.30;;;9.70;94.40;;;;;;944369;149;27351;-81
2023/01/10 09:00:41;;;;;;;6.83;3.03;;;9.80;93.80;;;;;;947468;148;27336;-80
2023/01/10 09:03:07;;;;;;;6.17;2.60;;;9.80;93.50;;;;;;964117;146;27434;-80
2023/01/10 09:05:34;;;;;;;4.63;2.20;;;9.80;93.00;;;;;;965032;146;27298;-80
2023/01/10 09:08:01;;;;;;;10.20;2.60;;;9.80;92.70;;;;;;945897;149;27320;-80
2023/01/10 09:10:27;;;;;;;8.63;2.70;;;9.80;92.50;;;;;;946706;148;27326;-81
2023/01/10 09:12:54;;;;;;;9.07;3.20;;;9.80;92.40;;;;;;946351;148;27414;-80
2023/01/10 09:15:20;;;;;;;9.27;3.70;;;9.80;92.40;;;;;;946648;149;27384;-81
2023/01/10 09:17:48;;;;;;;6.77;3.10;;;9.80;92.30;;;;;;961669;148;27273;-81
2023/01/10 09:20:13;;;;;;;6.87;2.67;;;9.80;92.40;;;;;;964089;146;27294;-81
2023/01/10 09:22:40;;;;;;;14.00;3.90;;;9.80;92.50;;;;;;964391;146;27459;-81
2023/01/10 09:25:07;;;;;;;8.47;3.37;;;9.80;92.40;;;;;;963124;146;27344;-79
2023/01/10 09:27:33;;;;;;;6.83;2.97;;;9.80;92.50;;;;;;962497;148;27456;-80
2023/01/10 09:30:00;;;;;;;5.17;2.40;;;9.80;92.60;;;;;;954926;146;27452;-79
2023/01/10 09:32:26;;;;;;;9.33;2.93;;;9.80;92.50;;;;;;933454;149;27282;-80
2023/01/10 09:34:53;;;;;;;7.40;2.67;;;9.90;92.60;;;;;;934174;149;27669;-80
2023/01/10 09:37:20;;;;;;;8.37;3.13;;;9.90;92.70;;;;;;932417;149;27724;-80
2023/01/10 09:39:46;;;;;;;6.70;2.53;;;10.00;92.80;;;;;;933581;149;27405;-80
2023/01/10 09:42:19;;;;;;;8.20;2.60;;;10.00;92.80;;;;;;933241;149;27282;-80
2023/01/10 09:44:51;;;;;;;8.83;2.83;;;10.10;92.80;;;;;;933827;149;27333;-80
2023/01/10 09:47:39;;;;;;;10.93;2.80;;;10.20;92.70;;;;;;932173;149;27960;-80
2023/01/10 09:50:26;;;;;;;6.77;2.43;;;10.30;92.50;;;;;;933241;149;27703;-80
2023/01/10 09:52:53;;;;;;;7.40;2.70;;;10.40;92.40;;;;;;932631;149;27452;-80
2023/01/10 09:55:20;;;;;;;7.00;2.20;;;10.40;92.30;;;;;;933063;149;27314;-80
2023/01/10 09:57:46;;;;;;;9.00;2.73;;;10.50;91.80;;;;;;931023;150;27385;-79
2023/01/10 10:00:16;;;;;;;7.13;2.80;;;10.50;91.40;;;;;;933724;149;27337;-80
2023/01/10 10:02:43;;;;;;;8.13;2.80;;;10.60;90.80;;;;;;947161;148;27321;-81
2023/01/10 10:05:24;;;;;;;6.60;2.07;;;10.60;90.50;;;;;;946729;148;27445;-79
2023/01/10 10:07:50;;;;;;;6.13;2.67;;;10.60;90.10;;;;;;947814;148;27332;-80
2023/01/10 10:10:17;;;;;;;8.00;2.77;;;10.60;89.30;;;;;;946384;148;27364;-80
2023/01/10 10:12:46;;;;;;;15.23;2.63;;;10.50;89.20;;;;;;946904;150;27391;-80
2023/01/10 10:15:31;;;;;;;5.23;2.10;;;10.50;89.50;;;;;;933444;149;27414;-80
2023/01/10 10:18:28;;;;;;;7.20;2.43;;;10.50;88.90;;;;;;933118;149;27301;-80
2023/01/10 10:21:16;;;;;;;2.97;1.77;;;10.50;89.00;;;;;;933943;149;27315;-80
2023/01/10 10:24:01;;;;;;;8.60;2.47;;;10.50;89.20;;;;;;949983;146;27317;-80
2023/01/10 10:26:34;;;;;;;6.17;2.60;;;10.50;89.30;;;;;;925895;153;27412;-79
2023/01/10 10:29:09;;;;;;;7.97;2.60;;;10.50;89.30;;;;;;957217;149;27922;-80
2023/01/10 10:31:41;;;;;;;8.07;2.70;;;10.60;89.60;;;;;;958639;148;27326;-80
2023/01/10 10:34:16;;;;;;;7.07;2.30;;;10.60;89.30;;;;;;959114;149;27333;-79
2023/01/10 10:36:52;;;;;;;5.73;2.07;;;10.60;89.80;;;;;;959562;149;27853;-78
2023/01/10 10:39:18;;;;;;;7.13;2.17;;;10.70;88.90;;;;;;959110;149;27873;-80
2023/01/10 10:41:45;;;;;;;3.10;2.00;;;10.70;88.50;;;;;;959659;149;27338;-80
2023/01/10 10:44:30;;;;;;;8.53;2.43;;;10.80;88.50;;;;;;959980;149;27430;-79
2023/01/10 10:47:00;;;;;;;6.00;2.10;;;10.80;87.70;;;;;;959510;148;27442;-80
2023/01/10 10:49:38;;;;;;;6.13;2.50;;;10.90;87.50;;;;;;958855;149;27260;-80
2023/01/10 10:52:05;;;;;;;3.80;2.07;;;10.90;86.80;;;;;;959856;149;27312;-80
2023/01/10 10:54:31;;;;;;;5.40;2.20;;;11.00;86.70;;;;;;958606;149;27446;-79
2023/01/10 10:56:58;;;;;;;3.90;2.00;;;11.00;86.60;;;;;;960141;148;27346;-79
2023/01/10 10:59:24;;;;;;;4.60;2.00;;;11.00;85.00;;;;;;959835;148;28159;-79
2023/01/10 11:01:51;;;;;;;5.73;2.00;;;11.00;85.30;;;;;;959872;149;27250;-79
2023/01/10 11:04:18;;;;;;;5.23;1.80;;;11.00;85.20;;;;;;959776;149;27775;-79
2023/01/10 11:06:47;;;;;;;6.23;2.03;;;11.00;84.70;;;;;;958284;148;27426;-79
2023/01/10 11:09:13;;;;;;;3.43;2.00;;;11.00;84.30;;;;;;959011;149;27322;-79
2023/01/10 11:11:37;;;;;;;5.67;1.87;;;11.00;84.20;;;;;;959372;148;27294;-79
2023/01/10 11:14:04;;;;;;;7.07;2.37;;;11.10;84.40;;;;;;956577;149;27443;-79
2023/01/10 11:16:30;;;;;;;5.53;2.70;;;11.10;84.60;;;;;;959893;149;27345;-80
2023/01/10 11:19:09;;;;;;;7.57;2.80;;;11.10;84.40;;;;;;959701;148;27464;-79
2023/01/10 11:21:36;;;;;;;5.90;2.10;;;11.10;84.10;;;;;;958659;146;27302;-80
2023/01/10 11:24:02;;;;;;;4.10;2.40;;;11.20;84.70;;;;;;963502;148;27412;-79
2023/01/10 11:26:39;;;;;;;7.83;2.50;;;11.20;84.10;;;;;;965079;147;27333;-79
2023/01/10 11:29:19;;;;;;;6.10;2.10;;;11.30;83.00;;;;;;942698;148;28625;-80
2023/01/10 11:31:45;;;;;;;5.97;2.00;;;11.30;83.20;;;;;;950843;147;27361;-79
2023/01/10 11:34:24;;;;;;;9.10;2.80;;;11.30;83.30;;;;;;952176;147;27416;-79
2023/01/10 11:37:02;;;;;;;4.60;2.07;;;11.30;83.00;;;;;;934295;149;27375;-79
2023/01/10 11:39:29;;;;;;;8.03;2.10;;;11.30;83.30;;;;;;935084;149;27370;-80
2023/01/10 11:41:58;;;;;;;3.80;2.03;;;11.30;83.20;;;;;;951924;147;27343;-79
2023/01/10 11:44:22;;;;;;;7.20;2.47;;;11.40;83.30;;;;;;935478;149;27416;-79
2023/01/10 11:46:49;;;;;;;6.97;2.17;;;11.30;81.40;;;;;;937267;149;27482;-79
2023/01/10 11:49:19;;;;;;;10.27;2.30;;;11.40;82.10;;;;;;951335;147;28501;-79
2023/01/10 11:51:45;;;;;;;5.57;2.57;;;11.40;83.20;;;;;;932947;149;27293;-79
2023/01/10 11:54:23;;;;;;;7.57;2.53;;;11.30;82.40;;;;;;949694;146;27315;-79
2023/01/10 11:56:56;;;;;;;6.40;2.30;;;11.40;82.40;;;;;;933231;149;27423;-78
2023/01/10 11:59:22;;;;;;;4.07;2.30;;;11.30;82.20;;;;;;926608;150;27354;-80
2023/01/10 12:02:04;;;;;;;8.33;2.40;;;11.30;81.90;;;;;;951261;147;27311;-79
2023/01/10 12:04:33;;;;;;;9.20;2.80;;;11.30;82.00;;;;;;927283;150;27593;-80
2023/01/10 12:07:00;;;;;;;3.53;2.30;;;11.30;81.70;;;;;;941534;149;27371;-80
2023/01/10 12:09:44;;;;;;;7.43;2.40;;;11.30;81.90;;;;;;941582;149;28954;-80
2023/01/10 12:12:34;;;;;;;8.13;2.70;;;11.30;82.20;;;;;;943140;149;27443;-80
2023/01/10 12:15:29;;;;;;;5.07;2.47;;;11.20;82.00;;;;;;933751;150;27865;-80
2023/01/10 12:17:55;;;;;;;7.13;2.30;;;11.20;82.10;;;;;;930514;149;27337;-80
2023/01/10 12:20:22;;;;;;;6.97;2.53;;;11.20;82.20;;;;;;951489;147;27351;-79
2023/01/10 12:22:54;;;;;;;9.30;2.63;;;11.20;81.90;;;;;;934450;150;27390;-80
2023/01/10 12:25:21;;;;;;;7.37;2.60;;;11.20;81.70;;;;;;934917;149;27332;-79
2023/01/10 12:27:49;;;;;;;8.73;2.20;;;11.20;81.80;;;;;;933995;150;27337;-79
2023/01/10 12:30:14;;;;;;;4.47;2.30;;;11.20;81.60;;;;;;951300;147;27383;-79
2023/01/10 12:32:53;;;;;;;9.47;2.53;;;11.20;81.40;;;;;;944979;148;28708;-79
2023/01/10 12:35:25;;;;;;;5.73;2.43;;;11.20;81.60;;;;;;951052;148;27773;-80
2023/01/10 12:37:51;;;;;;;3.53;2.00;;;11.20;81.90;;;;;;967493;145;27362;-80
2023/01/10 12:40:30;;;;;;;4.07;2.03;;;11.20;81.50;;;;;;951664;148;27377;-79
2023/01/10 12:45:47;;;;;;;4.10;2.10;;;11.30;81.90;;;;;;968969;145;27385;-79
2023/01/10 12:48:19;;;;;;;6.90;1.93;;;11.40;82.10;;;;;;967158;145;27292;-79
2023/01/10 12:50:57;;;;;;;5.33;2.90;;;11.50;81.90;;;;;;968498;145;27321;-79
2023/01/10 12:53:24;;;;;;;8.37;2.80;;;11.50;81.70;;;;;;968104;145;27401;-79
2023/01/10 12:55:50;;;;;;;6.77;2.17;;;11.50;81.00;;;;;;968358;145;27466;-79
2023/01/10 12:58:23;;;;;;;5.60;2.30;;;11.60;80.90;;;;;;950106;148;27467;-79
2023/01/10 13:00:49;;;;;;;7.00;2.77;;;11.60;80.50;;;;;;948655;149;27344;-79
2023/01/10 13:03:16;;;;;;;7.50;2.10;;;11.60;80.50;;;;;;969584;145;27416;-79
2023/01/10 13:05:42;;;;;;;6.15;2.15;;;11.60;80.00;;;;;;969619;145;27307;-79
2023/01/10 13:08:12;;;;;;;6.90;3.00;;;11.60;80.00;;;;;;969361;145;27886;-78
2023/01/10 13:10:38;;;;;;;5.67;2.80;;;11.70;80.00;;;;;;947976;148;27491;-79
2023/01/10 13:13:36;;;;;;;9.03;2.90;;;11.70;80.20;;;;;;967462;145;27332;-78